Terminal Aerodrome Forecast
Issued by NWS Wichita, KS

Home | Current Version | Previous Version | Text Only | Print | Product List | Glossary Off
Versions: 1 2 3 4 5 6 7 8 9 10 11 12 13 14 15 16 17

604
FTUS43 KICT 231732
TAFICT
TAF
KICT 231732Z 2318/2418 18015G22KT P6SM SCT050
     FM240000 16012KT P6SM SCT080 BKN250
     FM241300 17012G18KT P6SM VCSH SCT015 BKN040=

USA.gov is the U.S. government's official web portal to all federal, state and local government web resources and services.